Main page
METAR-TAF:

METAR-TAF

Airports :

La Chinita International Airport

Maracaibo, Venezuela

latitude: 10-34N, longitude: 071-44W, elevation: 66 m

METAR: missing

Time: 22:59 (02:59 UTC)

Forecast

The report was made 4 hours and 59 minutes ago, at 22:00 UTC
Forecast valid from 15 at 00 UTC to 16 at 00 UTC
Wind 4 kt from the Northeast
Few clouds at a height of 1600 ft
Scattered clouds at a height of 10000 ft
Temporary
from 15 at 01 UTC to 15 at 05 UTC
Wind 3 kt from the North
Visibility: 9000 m
Broken clouds at a height of 1300 ft
rain

TAF: SVMC 142200Z 1500/1600 05004KT FEW016 SCT100 TX35/18Z TN25/09Z TEMPO 1501/1505 36003KT 9000 RA BKN013

Weather observations and forecasts of more than 4000 airports (METAR and TAF reports).

The available stations are represented by yellow and red dots on the map.

Hover mouse over dot to see the name of the station.

Then click to see weather observations and forecasts.

To change the map : click on the green buttons with a black cross to zoom in, on the green button with a dash to zoom out, or on the green arrows for adjacent maps.


METAR-TAF: